createdAt,value
2019-04-30T00:00:02.830Z,3.90
2019-04-30T00:02:38.410Z,4.60
2019-04-30T00:05:00.621Z,4.33
2019-04-30T00:07:27.946Z,4.50
2019-04-30T00:09:57.626Z,4.13
2019-04-30T00:12:25.770Z,4.97
2019-04-30T00:14:54.909Z,4.27
2019-04-30T00:17:22.288Z,4.73
2019-04-30T00:19:50.478Z,3.87
2019-04-30T00:22:30.754Z,4.00
2019-04-30T00:24:50.071Z,4.20
2019-04-30T00:27:21.041Z,4.13
2019-04-30T00:29:46.446Z,4.07
2019-04-30T00:32:13.694Z,3.77
2019-04-30T00:34:41.028Z,3.90
2019-04-30T00:37:13.975Z,3.90
2019-04-30T00:39:37.491Z,4.30
2019-04-30T00:42:05.018Z,4.20
2019-04-30T00:44:32.238Z,4.07
2019-04-30T00:47:00.727Z,4.67
2019-04-30T00:49:28.604Z,4.30
2019-04-30T00:51:58.183Z,4.73
2019-04-30T00:54:27.961Z,4.00
2019-04-30T00:56:59.144Z,3.53
2019-04-30T00:59:24.954Z,4.03
2019-04-30T01:02:19.969Z,4.33
2019-04-30T01:04:46.238Z,3.60
2019-04-30T01:07:15.549Z,4.13
2019-04-30T01:09:46.583Z,4.37
2019-04-30T01:12:12.191Z,4.60
2019-04-30T01:14:39.558Z,3.97
2019-04-30T01:17:08.819Z,4.80
2019-04-30T01:19:36.252Z,4.23
2019-04-30T01:22:03.601Z,4.67
2019-04-30T01:24:31.792Z,3.93
2019-04-30T01:27:06.578Z,4.20
2019-04-30T01:29:31.155Z,4.37
2019-04-30T01:31:58.764Z,4.40
2019-04-30T01:34:26.069Z,4.27
2019-04-30T01:36:53.324Z,4.17
2019-04-30T01:39:23.751Z,4.03
2019-04-30T01:41:50.208Z,4.70
2019-04-30T01:44:19.354Z,4.17
2019-04-30T01:46:48.227Z,4.20
2019-04-30T01:49:15.799Z,4.70
2019-04-30T01:51:43.067Z,4.53
2019-04-30T01:54:13.750Z,4.57
2019-04-30T01:57:10.748Z,3.97
2019-04-30T01:59:55.918Z,4.30
2019-04-30T02:02:25.071Z,4.10
2019-04-30T02:04:52.432Z,4.50
2019-04-30T02:07:19.734Z,4.30
2019-04-30T02:09:48.818Z,4.50
2019-04-30T02:12:16.132Z,3.87
2019-04-30T02:14:43.382Z,3.53
2019-04-30T02:17:10.701Z,4.10
2019-04-30T02:19:39.087Z,3.70
2019-04-30T02:22:06.492Z,4.37
2019-04-30T02:24:33.707Z,4.30
2019-04-30T02:27:00.949Z,3.90
2019-04-30T02:29:29.715Z,4.37
2019-04-30T02:31:57.161Z,4.17
2019-04-30T02:34:32.248Z,3.97
2019-04-30T02:37:06.261Z,4.07
2019-04-30T02:39:33.570Z,3.83
2019-04-30T02:42:02.067Z,4.17
2019-04-30T02:44:30.550Z,3.93
2019-04-30T02:47:00.332Z,4.03
2019-04-30T02:49:30.443Z,4.33
2019-04-30T02:52:01.584Z,4.20
2019-04-30T02:54:31.735Z,4.13
2019-04-30T02:57:22.853Z,4.20
2019-04-30T03:00:22.827Z,3.60
2019-04-30T03:02:50.688Z,3.93
2019-04-30T03:05:20.310Z,4.30
2019-04-30T03:07:52.976Z,4.13
2019-04-30T03:10:19.574Z,4.40
2019-04-30T03:12:49.940Z,4.10
2019-04-30T03:15:22.342Z,3.90
2019-04-30T03:18:23.054Z,4.10
2019-04-30T03:21:14.554Z,4.13
2019-04-30T03:23:45.559Z,3.97
2019-04-30T03:26:13.512Z,3.90
2019-04-30T03:28:42.875Z,4.20
2019-04-30T03:31:12.551Z,3.93
2019-04-30T03:33:42.364Z,4.00
2019-04-30T03:36:12.409Z,4.13
2019-04-30T03:38:42.666Z,4.20
2019-04-30T03:41:11.179Z,4.13
2019-04-30T03:43:40.052Z,3.93
2019-04-30T03:46:10.154Z,3.93
2019-04-30T03:48:39.618Z,3.57
2019-04-30T03:51:10.365Z,4.40
2019-04-30T03:53:39.724Z,3.87
2019-04-30T03:56:09.354Z,3.50
2019-04-30T03:58:38.907Z,4.57
2019-04-30T04:01:13.206Z,3.70
2019-04-30T04:04:00.693Z,3.67
2019-04-30T04:06:35.767Z,3.90
2019-04-30T04:09:16.213Z,3.77
2019-04-30T04:11:45.133Z,3.60
2019-04-30T04:14:12.830Z,3.23
2019-04-30T04:16:46.502Z,3.57
2019-04-30T04:19:14.680Z,3.37
2019-04-30T04:21:44.971Z,3.70
2019-04-30T04:24:20.174Z,3.00
2019-04-30T04:26:46.070Z,3.43
2019-04-30T04:29:14.249Z,3.10
2019-04-30T04:31:41.718Z,3.13
2019-04-30T04:34:09.409Z,3.17
2019-04-30T04:36:36.804Z,2.50
2019-04-30T04:39:05.709Z,3.00
2019-04-30T04:41:33.047Z,3.10
2019-04-30T04:44:00.416Z,2.93
2019-04-30T04:46:30.464Z,3.30
2019-04-30T04:48:59.424Z,3.03
2019-04-30T04:51:36.570Z,2.73
2019-04-30T04:53:55.175Z,3.10
2019-04-30T04:56:22.427Z,2.90
2019-04-30T04:58:50.350Z,2.80
2019-04-30T05:01:20.185Z,2.67
2019-04-30T05:03:48.941Z,2.60
2019-04-30T05:06:16.125Z,2.70
2019-04-30T05:08:43.484Z,3.10
2019-04-30T05:11:10.831Z,2.73
2019-04-30T05:13:38.893Z,3.10
2019-04-30T05:16:06.336Z,2.60
2019-04-30T05:18:33.662Z,2.93
2019-04-30T05:21:01.055Z,2.97
2019-04-30T05:23:29.887Z,3.27
2019-04-30T05:25:58.905Z,2.80
2019-04-30T05:28:26.372Z,3.07
2019-04-30T05:30:53.733Z,2.87
2019-04-30T05:33:21.060Z,2.67
2019-04-30T05:35:49.583Z,3.10
2019-04-30T05:38:18.841Z,2.80
2019-04-30T05:40:46.158Z,2.90
2019-04-30T05:43:13.412Z,3.17
2019-04-30T05:45:40.775Z,3.60
2019-04-30T05:48:08.849Z,3.10
2019-04-30T05:50:36.329Z,3.13
2019-04-30T05:53:03.911Z,3.50
2019-04-30T05:55:31.264Z,3.43
2019-04-30T05:58:01.542Z,3.90
2019-04-30T06:00:30.489Z,3.70
2019-04-30T06:02:59.471Z,3.70
2019-04-30T06:05:28.558Z,4.03
2019-04-30T06:07:56.052Z,4.03
2019-04-30T06:10:41.464Z,4.60
2019-04-30T06:13:21.542Z,4.93
2019-04-30T06:15:52.680Z,4.60
2019-04-30T06:18:20.465Z,5.37
2019-04-30T06:20:48.581Z,4.70
2019-04-30T06:23:16.080Z,5.00
2019-04-30T06:25:56.305Z,5.27
2019-04-30T06:28:12.834Z,5.10
2019-04-30T06:30:40.399Z,4.83
2019-04-30T06:33:09.227Z,4.97
2019-04-30T06:35:36.981Z,4.97
2019-04-30T06:38:06.101Z,4.83
2019-04-30T06:40:33.354Z,5.90
2019-04-30T06:43:00.962Z,4.90
2019-04-30T06:45:30.036Z,5.60
2019-04-30T06:47:59.203Z,6.60
2019-04-30T06:50:26.403Z,5.47
2019-04-30T06:52:58.361Z,6.23
2019-04-30T06:55:23.066Z,5.10
2019-04-30T06:57:50.323Z,4.93
2019-04-30T07:00:32.690Z,4.53
2019-04-30T07:02:49.453Z,4.00
2019-04-30T07:05:18.565Z,4.40
2019-04-30T07:08:09.307Z,3.80
2019-04-30T07:10:36.034Z,3.80
2019-04-30T07:13:15.198Z,3.60
2019-04-30T07:15:42.625Z,3.50
2019-04-30T07:18:09.835Z,4.10
2019-04-30T07:20:38.738Z,3.27
2019-04-30T07:23:06.120Z,3.83
2019-04-30T07:25:33.440Z,3.40
2019-04-30T07:28:00.684Z,3.77
2019-04-30T07:30:30.702Z,3.50
2019-04-30T07:32:57.070Z,3.03
2019-04-30T07:35:24.436Z,3.53
2019-04-30T07:37:54.627Z,3.40
2019-04-30T07:40:21.512Z,3.63
2019-04-30T07:42:49.389Z,3.40
2019-04-30T07:45:16.808Z,3.43
2019-04-30T07:47:44.136Z,3.40
2019-04-30T07:50:11.755Z,3.50
2019-04-30T07:52:58.060Z,3.20
2019-04-30T07:55:09.748Z,3.40
2019-04-30T07:57:40.145Z,4.23
2019-04-30T08:00:09.576Z,3.20
2019-04-30T08:02:43.677Z,3.20
2019-04-30T08:05:19.280Z,3.30
2019-04-30T08:07:46.345Z,3.30
2019-04-30T08:10:13.951Z,3.40
2019-04-30T08:12:43.206Z,3.50
2019-04-30T08:15:10.428Z,3.13
2019-04-30T08:17:38.905Z,3.47
2019-04-30T08:20:08.597Z,3.40
2019-04-30T08:22:35.664Z,3.43
2019-04-30T08:25:03.684Z,3.30
2019-04-30T08:27:30.922Z,3.20
2019-04-30T08:29:59.198Z,3.33
2019-04-30T08:32:28.796Z,3.00
2019-04-30T08:34:55.788Z,3.10
2019-04-30T08:37:23.250Z,3.27
2019-04-30T08:39:50.603Z,3.20
2019-04-30T08:42:29.089Z,3.27
2019-04-30T08:44:48.518Z,3.40
2019-04-30T08:47:16.037Z,3.50
2019-04-30T08:49:43.608Z,3.60
2019-04-30T08:52:11.380Z,3.63
2019-04-30T08:54:39.329Z,3.50
2019-04-30T08:57:08.493Z,3.40
2019-04-30T08:59:35.843Z,3.30
2019-04-30T09:02:13.658Z,3.30
2019-04-30T09:04:32.585Z,3.50
2019-04-30T09:07:00.054Z,3.30
2019-04-30T09:09:29.436Z,3.10
2019-04-30T09:11:56.626Z,3.10
2019-04-30T09:14:23.852Z,3.10
2019-04-30T09:16:51.396Z,3.43
2019-04-30T09:19:21.030Z,3.60
2019-04-30T09:21:48.864Z,3.00
2019-04-30T09:24:16.380Z,3.27
2019-04-30T09:26:43.695Z,3.13
2019-04-30T09:29:11.141Z,3.20
2019-04-30T09:31:40.769Z,3.30
2019-04-30T09:34:15.206Z,3.50
2019-04-30T09:36:39.022Z,3.13
2019-04-30T09:39:08.777Z,3.03
2019-04-30T09:41:35.655Z,3.33
2019-04-30T09:44:03.463Z,3.50
2019-04-30T09:46:30.856Z,3.20
2019-04-30T09:48:59.811Z,3.10
2019-04-30T09:51:29.894Z,3.67
2019-04-30T09:54:02.107Z,3.20
2019-04-30T09:56:25.922Z,3.30
2019-04-30T09:58:53.259Z,3.40
2019-04-30T10:01:22.060Z,3.10
2019-04-30T10:03:50.406Z,3.13
2019-04-30T10:06:18.962Z,3.40
2019-04-30T10:08:49.271Z,3.53
2019-04-30T10:11:35.214Z,3.27
2019-04-30T10:14:02.643Z,3.27
2019-04-30T10:16:41.777Z,3.70
2019-04-30T10:19:10.237Z,3.47
2019-04-30T10:21:38.918Z,3.40
2019-04-30T10:24:14.837Z,3.30
2019-04-30T10:26:35.354Z,3.60
2019-04-30T10:29:02.900Z,3.23
2019-04-30T10:31:30.292Z,3.50
2019-04-30T10:33:58.581Z,3.93
2019-04-30T10:36:26.009Z,3.27
2019-04-30T10:38:53.326Z,3.37
2019-04-30T10:41:20.675Z,3.40
2019-04-30T10:43:49.224Z,3.60
2019-04-30T10:46:16.757Z,3.43
2019-04-30T10:48:44.203Z,3.27
2019-04-30T10:51:11.441Z,3.33
2019-04-30T10:53:38.801Z,3.47
2019-04-30T10:56:06.127Z,3.63
2019-04-30T10:58:33.500Z,3.70
2019-04-30T11:01:01.991Z,3.77
2019-04-30T11:03:29.440Z,3.70
2019-04-30T11:05:58.546Z,3.80
2019-04-30T11:08:27.140Z,3.40
2019-04-30T11:10:54.707Z,4.17
2019-04-30T11:13:22.066Z,3.57
2019-04-30T11:15:49.371Z,3.83
2019-04-30T11:18:16.855Z,3.90
2019-04-30T11:20:44.498Z,3.67
2019-04-30T11:23:14.679Z,4.03
2019-04-30T11:25:42.160Z,3.83
2019-04-30T11:28:10.536Z,3.50
2019-04-30T11:30:39.313Z,3.90
2019-04-30T11:33:07.030Z,4.00
2019-04-30T11:35:34.617Z,3.63
2019-04-30T11:38:02.450Z,4.07
2019-04-30T11:40:34.618Z,3.57
2019-04-30T11:43:00.305Z,4.33
2019-04-30T11:46:19.480Z,3.67
2019-04-30T11:48:48.873Z,4.10
2019-04-30T11:51:16.032Z,4.20
2019-04-30T11:53:43.371Z,3.90
2019-04-30T11:56:10.575Z,4.13
2019-04-30T11:58:38.887Z,3.80
2019-04-30T12:01:10.006Z,4.00
2019-04-30T12:03:37.216Z,4.00
2019-04-30T12:06:04.465Z,3.97
2019-04-30T12:08:34.587Z,3.63
2019-04-30T12:11:15.389Z,4.37
2019-04-30T12:13:42.734Z,4.40
2019-04-30T12:16:10.076Z,3.87
2019-04-30T12:18:37.400Z,3.80
2019-04-30T12:21:04.639Z,4.00
2019-04-30T12:23:32.080Z,3.77
2019-04-30T12:26:02.536Z,4.03
2019-04-30T12:28:29.684Z,4.00
2019-04-30T12:30:58.736Z,4.10
2019-04-30T12:33:26.279Z,3.80
2019-04-30T12:35:53.496Z,3.97
2019-04-30T12:38:20.746Z,4.10
2019-04-30T12:40:47.967Z,4.10
2019-04-30T12:43:15.321Z,4.50
2019-04-30T12:45:42.844Z,4.13
2019-04-30T12:48:20.275Z,4.33
2019-04-30T12:50:58.996Z,4.63
2019-04-30T12:53:33.544Z,4.50
2019-04-30T12:56:10.750Z,4.80
2019-04-30T12:58:38.143Z,4.80
2019-04-30T13:01:05.448Z,4.60
2019-04-30T13:03:32.680Z,5.23
2019-04-30T13:06:01.270Z,5.03
2019-04-30T13:08:29.591Z,4.97
2019-04-30T13:10:57.890Z,5.00
2019-04-30T13:13:25.891Z,4.83
2019-04-30T13:15:53.363Z,5.10
2019-04-30T13:18:20.584Z,5.13
2019-04-30T13:20:48.961Z,5.17
2019-04-30T13:23:16.383Z,5.20
2019-04-30T13:25:51.376Z,5.13
2019-04-30T13:28:16.739Z,5.80
2019-04-30T13:30:44.072Z,5.73
2019-04-30T13:33:20.890Z,6.03
2019-04-30T13:35:48.869Z,6.30
2019-04-30T13:38:27.743Z,6.07
2019-04-30T13:41:04.067Z,6.10
2019-04-30T13:44:00.360Z,6.27
2019-04-30T13:46:28.462Z,6.23
2019-04-30T13:48:56.055Z,5.73
2019-04-30T13:51:23.733Z,5.90
2019-04-30T13:53:54.452Z,6.30
2019-04-30T13:56:22.021Z,6.20
2019-04-30T13:58:49.472Z,6.70
2019-04-30T14:01:18.878Z,6.13
2019-04-30T14:04:11.113Z,6.33
2019-04-30T14:06:45.101Z,6.80
2019-04-30T14:09:19.895Z,6.40
2019-04-30T14:11:47.224Z,7.27
2019-04-30T14:14:14.684Z,7.00
2019-04-30T14:16:50.113Z,7.00
2019-04-30T14:19:19.562Z,6.53
2019-04-30T14:21:49.271Z,7.63
2019-04-30T14:24:16.607Z,6.37
2019-04-30T14:26:44.783Z,6.53
2019-04-30T14:29:12.203Z,7.20
2019-04-30T14:31:39.451Z,6.67
2019-04-30T14:34:06.691Z,6.73
2019-04-30T14:36:33.999Z,6.83
2019-04-30T14:39:13.450Z,7.07
2019-04-30T14:41:32.267Z,6.83
2019-04-30T14:44:09.238Z,7.07
2019-04-30T14:46:50.767Z,6.50
2019-04-30T14:49:59.141Z,6.53
2019-04-30T14:52:16.422Z,6.67
2019-04-30T14:55:09.416Z,7.20
2019-04-30T14:57:53.391Z,7.60
2019-04-30T15:00:38.894Z,8.23
2019-04-30T15:03:10.513Z,7.73
2019-04-30T15:08:29.303Z,6.90
2019-04-30T15:10:56.829Z,7.80
2019-04-30T15:13:24.147Z,8.03
2019-04-30T15:15:51.396Z,7.50
2019-04-30T15:18:19.218Z,6.80
2019-04-30T15:20:49.605Z,7.17
2019-04-30T15:23:34.948Z,7.23
2019-04-30T15:26:25.061Z,7.87
2019-04-30T15:28:52.177Z,7.27
2019-04-30T15:31:19.598Z,7.87
2019-04-30T15:34:02.517Z,7.83
2019-04-30T15:36:24.139Z,7.90
2019-04-30T15:38:59.721Z,8.17
2019-04-30T15:41:27.480Z,7.40
2019-04-30T15:43:54.959Z,6.87
2019-04-30T15:46:22.758Z,7.53
2019-04-30T15:48:50.017Z,7.53
2019-04-30T15:51:17.271Z,7.70
2019-04-30T15:53:44.580Z,7.50
2019-04-30T15:56:11.920Z,10.80
2019-04-30T15:58:41.175Z,10.43
2019-04-30T16:01:09.751Z,11.10
2019-04-30T16:03:38.495Z,10.00
2019-04-30T16:06:05.852Z,15.63
2019-04-30T16:08:39.088Z,9.30
2019-04-30T16:11:24.956Z,9.70
2019-04-30T16:14:18.587Z,8.73
2019-04-30T16:17:01.346Z,8.63
2019-04-30T16:19:34.622Z,10.07
2019-04-30T16:22:04.672Z,9.00
2019-04-30T16:24:32.262Z,9.83
2019-04-30T16:26:59.796Z,10.43
2019-04-30T16:29:27.159Z,9.43
2019-04-30T16:31:54.689Z,9.73
2019-04-30T16:34:22.048Z,13.67
2019-04-30T16:36:49.689Z,9.40
2019-04-30T16:39:18.656Z,10.10
2019-04-30T16:41:49.520Z,9.33
2019-04-30T16:44:18.989Z,9.93
2019-04-30T16:46:46.480Z,9.80
2019-04-30T16:49:14.225Z,10.10
2019-04-30T16:51:41.684Z,9.60
2019-04-30T16:54:09.041Z,10.07
2019-04-30T16:56:36.259Z,9.70
2019-04-30T16:59:05.221Z,9.80
2019-04-30T17:01:33.989Z,9.83
2019-04-30T17:04:34.050Z,10.73
2019-04-30T17:07:11.959Z,9.27
2019-04-30T17:09:49.063Z,10.40
2019-04-30T17:12:25.717Z,10.07
2019-04-30T17:15:19.661Z,10.30
2019-04-30T17:17:49.114Z,10.77
2019-04-30T17:20:16.407Z,10.53
2019-04-30T17:22:43.921Z,9.97
2019-04-30T17:25:11.283Z,11.03
2019-04-30T17:27:39.248Z,10.23
2019-04-30T17:30:09.089Z,11.13
2019-04-30T17:32:46.792Z,10.37
2019-04-30T17:35:14.738Z,10.50
2019-04-30T17:37:50.375Z,11.17
2019-04-30T17:40:19.243Z,10.83
2019-04-30T17:42:46.776Z,10.80
2019-04-30T17:45:14.640Z,11.03
2019-04-30T17:47:43.761Z,11.27
2019-04-30T17:50:10.987Z,11.13
2019-04-30T17:52:38.327Z,11.17
2019-04-30T17:55:06.522Z,11.10
2019-04-30T17:57:34.684Z,11.33
2019-04-30T18:00:15.868Z,11.87
2019-04-30T18:02:32.579Z,10.93
2019-04-30T18:04:59.930Z,11.90
2019-04-30T18:07:29.539Z,11.43
2019-04-30T18:09:58.602Z,12.90
2019-04-30T18:12:25.724Z,12.93
2019-04-30T18:14:52.967Z,12.60
2019-04-30T18:17:21.588Z,11.97
2019-04-30T18:20:16.583Z,12.47
2019-04-30T18:23:02.331Z,13.23
2019-04-30T18:25:35.439Z,12.60
2019-04-30T18:28:03.120Z,11.77
2019-04-30T18:30:33.658Z,13.07
2019-04-30T18:33:01.014Z,13.17
2019-04-30T18:35:31.110Z,13.20
2019-04-30T18:37:58.654Z,13.10
2019-04-30T18:40:26.201Z,13.40
2019-04-30T18:42:53.618Z,13.00
2019-04-30T18:45:21.157Z,13.00
2019-04-30T18:47:48.826Z,13.55
2019-04-30T18:50:16.842Z,14.07
2019-04-30T18:52:45.119Z,13.70
2019-04-30T18:55:13.264Z,13.50
2019-04-30T18:57:41.003Z,14.30
2019-04-30T19:00:09.985Z,14.83
2019-04-30T19:02:38.382Z,13.83
2019-04-30T19:05:09.688Z,14.13
2019-04-30T19:07:43.242Z,14.83
2019-04-30T19:10:23.976Z,14.00
2019-04-30T19:13:09.238Z,14.17
2019-04-30T19:16:19.668Z,15.50
2019-04-30T19:18:47.568Z,16.30
2019-04-30T19:21:15.213Z,16.23
2019-04-30T19:23:48.787Z,17.03
2019-04-30T19:26:16.784Z,15.60
2019-04-30T19:28:44.345Z,15.27
2019-04-30T19:31:12.413Z,15.37
2019-04-30T19:33:39.764Z,16.33
2019-04-30T19:36:07.069Z,16.80
2019-04-30T19:38:34.520Z,15.93
2019-04-30T19:41:02.071Z,15.63
2019-04-30T19:43:29.418Z,17.60
2019-04-30T19:45:56.726Z,16.40
2019-04-30T19:48:24.386Z,17.17
2019-04-30T19:50:52.150Z,17.87
2019-04-30T19:53:23.289Z,17.93
2019-04-30T19:56:02.370Z,18.90
2019-04-30T19:58:48.137Z,17.63
2019-04-30T20:01:04.274Z,17.90
2019-04-30T20:03:31.947Z,18.83
2019-04-30T20:05:59.716Z,18.13
2019-04-30T20:08:28.674Z,18.20
2019-04-30T20:10:56.404Z,20.77
2019-04-30T20:13:35.739Z,19.53
2019-04-30T20:15:53.003Z,20.23
2019-04-30T20:18:20.746Z,19.47
2019-04-30T20:20:52.012Z,20.07
2019-04-30T20:23:19.477Z,18.90
2019-04-30T20:25:46.936Z,20.03
2019-04-30T20:28:14.657Z,20.97
2019-04-30T20:30:42.208Z,20.57
2019-04-30T20:33:09.713Z,18.90
2019-04-30T20:35:39.021Z,19.27
2019-04-30T20:38:38.135Z,20.60
2019-04-30T20:41:06.569Z,19.73
2019-04-30T20:43:33.936Z,19.93
2019-04-30T20:46:01.179Z,20.77
2019-04-30T20:48:29.990Z,19.27
2019-04-30T20:51:01.076Z,18.30
2019-04-30T20:53:26.662Z,17.90
2019-04-30T20:55:53.963Z,18.90
2019-04-30T20:58:21.108Z,18.60
2019-04-30T21:01:00.574Z,19.93
2019-04-30T21:03:19.493Z,19.90
2019-04-30T21:05:46.509Z,20.17
2019-04-30T21:08:13.804Z,18.23
2019-04-30T21:10:41.064Z,18.27
2019-04-30T21:13:10.956Z,18.23
2019-04-30T21:15:39.429Z,18.40
2019-04-30T21:18:06.580Z,20.57
2019-04-30T21:20:33.924Z,19.80
2019-04-30T21:23:01.138Z,18.80
2019-04-30T21:25:29.215Z,19.40
2019-04-30T21:27:56.737Z,20.13
2019-04-30T21:30:24.046Z,19.53
2019-04-30T21:33:22.835Z,20.37
2019-04-30T21:35:55.939Z,19.23
2019-04-30T21:38:23.252Z,19.30
2019-04-30T21:40:50.531Z,19.10
2019-04-30T21:43:17.643Z,20.30
2019-04-30T21:45:44.991Z,19.83
2019-04-30T21:48:12.310Z,19.70
2019-04-30T21:50:39.787Z,18.90
2019-04-30T21:53:09.691Z,19.47
2019-04-30T21:55:36.588Z,20.30
2019-04-30T21:58:04.037Z,19.43
2019-04-30T22:01:00.128Z,18.30
2019-04-30T22:03:29.217Z,18.70
2019-04-30T22:05:56.713Z,19.60
2019-04-30T22:08:23.980Z,18.43
2019-04-30T22:10:51.303Z,19.10
2019-04-30T22:13:18.797Z,20.40
2019-04-30T22:15:46.230Z,19.07
2019-04-30T22:18:13.667Z,20.03
2019-04-30T22:20:40.984Z,20.67
2019-04-30T22:23:08.239Z,19.00
2019-04-30T22:25:35.571Z,20.03
2019-04-30T22:28:02.917Z,20.80
2019-04-30T22:30:30.256Z,19.23
2019-04-30T22:32:59.487Z,19.10
2019-04-30T22:35:52.071Z,19.63
2019-04-30T22:38:22.999Z,20.80
2019-04-30T22:40:50.233Z,19.93
2019-04-30T22:43:17.438Z,20.40
2019-04-30T22:45:50.385Z,20.40
2019-04-30T22:48:19.447Z,19.53
2019-04-30T22:50:46.794Z,21.53
2019-04-30T22:53:14.117Z,20.07
2019-04-30T22:55:41.489Z,21.13
2019-04-30T22:58:08.794Z,21.00
2019-04-30T23:00:43.804Z,20.87
2019-04-30T23:03:19.047Z,21.00
2019-04-30T23:05:46.467Z,22.63
2019-04-30T23:08:13.817Z,19.80
2019-04-30T23:10:41.019Z,19.77
2019-04-30T23:13:08.260Z,21.37
2019-04-30T23:15:35.792Z,21.80
2019-04-30T23:18:03.035Z,23.07
2019-04-30T23:20:30.284Z,22.07
2019-04-30T23:22:57.508Z,20.63
2019-04-30T23:25:24.864Z,21.67
2019-04-30T23:27:52.178Z,21.37
2019-04-30T23:30:19.540Z,22.40
2019-04-30T23:32:46.870Z,23.30
2019-04-30T23:35:14.177Z,24.10
2019-04-30T23:37:41.411Z,22.87
2019-04-30T23:40:23.058Z,23.80
2019-04-30T23:42:50.804Z,23.53
2019-04-30T23:45:18.153Z,24.73
2019-04-30T23:47:45.408Z,23.13
2019-04-30T23:50:12.713Z,22.70
2019-04-30T23:52:39.953Z,21.90
2019-04-30T23:55:07.198Z,22.50
2019-04-30T23:57:34.533Z,21.27
